sensor_id;sensor_type;location;lat;lon;timestamp;P1;durP1;ratioP1;P2;durP2;ratioP2
42030;SDS011;27709;52.036;5.906;2022-08-24T00:06:33;5.60;;;3.80;;
42030;SDS011;27709;52.036;5.906;2022-08-24T00:09:01;4.05;;;3.60;;
42030;SDS011;27709;52.036;5.906;2022-08-24T00:11:28;6.53;;;3.75;;
42030;SDS011;27709;52.036;5.906;2022-08-24T00:13:55;5.80;;;3.47;;
42030;SDS011;27709;52.036;5.906;2022-08-24T00:16:22;6.47;;;3.88;;
42030;SDS011;27709;52.036;5.906;2022-08-24T00:18:50;6.47;;;4.28;;
42030;SDS011;27709;52.036;5.906;2022-08-24T00:21:15;4.38;;;3.80;;
42030;SDS011;27709;52.036;5.906;2022-08-24T00:23:43;4.78;;;3.80;;
42030;SDS011;27709;52.036;5.906;2022-08-24T00:26:09;6.45;;;4.10;;
42030;SDS011;27709;52.036;5.906;2022-08-24T00:28:36;6.47;;;3.85;;
42030;SDS011;27709;52.036;5.906;2022-08-24T00:31:02;4.47;;;3.70;;
42030;SDS011;27709;52.036;5.906;2022-08-24T00:33:29;5.18;;;3.75;;
42030;SDS011;27709;52.036;5.906;2022-08-24T00:35:54;5.45;;;3.60;;
42030;SDS011;27709;52.036;5.906;2022-08-24T00:38:20;5.78;;;3.75;;
42030;SDS011;27709;52.036;5.906;2022-08-24T00:40:47;4.97;;;3.53;;
42030;SDS011;27709;52.036;5.906;2022-08-24T00:43:16;5.78;;;3.90;;
42030;SDS011;27709;52.036;5.906;2022-08-24T00:45:57;5.35;;;4.05;;
42030;SDS011;27709;52.036;5.906;2022-08-24T00:48:29;4.88;;;3.72;;
42030;SDS011;27709;52.036;5.906;2022-08-24T00:51:00;6.05;;;3.95;;
42030;SDS011;27709;52.036;5.906;2022-08-24T00:53:38;5.32;;;4.10;;
42030;SDS011;27709;52.036;5.906;2022-08-24T00:56:21;5.70;;;4.00;;
42030;SDS011;27709;52.036;5.906;2022-08-24T00:58:55;5.93;;;4.43;;
42030;SDS011;27709;52.036;5.906;2022-08-24T01:01:26;4.90;;;3.90;;
42030;SDS011;27709;52.036;5.906;2022-08-24T01:03:53;4.93;;;3.95;;
42030;SDS011;27709;52.036;5.906;2022-08-24T01:06:20;4.10;;;3.55;;
42030;SDS011;27709;52.036;5.906;2022-08-24T01:08:46;5.45;;;4.07;;
42030;SDS011;27709;52.036;5.906;2022-08-24T01:11:13;4.85;;;3.70;;
42030;SDS011;27709;52.036;5.906;2022-08-24T01:13:42;4.15;;;3.67;;
42030;SDS011;27709;52.036;5.906;2022-08-24T01:16:11;4.35;;;3.72;;
42030;SDS011;27709;52.036;5.906;2022-08-24T01:18:59;7.30;;;4.10;;
42030;SDS011;27709;52.036;5.906;2022-08-24T01:21:44;4.15;;;3.67;;
42030;SDS011;27709;52.036;5.906;2022-08-24T01:24:16;6.15;;;3.85;;
42030;SDS011;27709;52.036;5.906;2022-08-24T01:26:47;5.57;;;3.88;;
42030;SDS011;27709;52.036;5.906;2022-08-24T01:29:24;5.85;;;4.28;;
42030;SDS011;27709;52.036;5.906;2022-08-24T01:31:52;4.97;;;4.00;;
42030;SDS011;27709;52.036;5.906;2022-08-24T01:34:20;4.78;;;4.03;;
42030;SDS011;27709;52.036;5.906;2022-08-24T01:36:47;5.30;;;4.10;;
42030;SDS011;27709;52.036;5.906;2022-08-24T01:41:47;4.45;;;3.80;;
42030;SDS011;27709;52.036;5.906;2022-08-24T01:44:13;5.22;;;3.75;;
42030;SDS011;27709;52.036;5.906;2022-08-24T01:46:43;4.88;;;3.97;;
42030;SDS011;27709;52.036;5.906;2022-08-24T01:49:10;4.70;;;3.85;;
42030;SDS011;27709;52.036;5.906;2022-08-24T01:51:35;4.57;;;3.53;;
42030;SDS011;27709;52.036;5.906;2022-08-24T01:54:03;5.47;;;4.35;;
42030;SDS011;27709;52.036;5.906;2022-08-24T01:56:29;4.82;;;4.18;;
42030;SDS011;27709;52.036;5.906;2022-08-24T01:58:56;5.53;;;4.05;;
42030;SDS011;27709;52.036;5.906;2022-08-24T02:01:22;6.35;;;4.10;;
42030;SDS011;27709;52.036;5.906;2022-08-24T02:03:49;5.38;;;4.30;;
42030;SDS011;27709;52.036;5.906;2022-08-24T02:06:14;5.38;;;3.95;;
42030;SDS011;27709;52.036;5.906;2022-08-24T02:08:43;5.50;;;4.28;;
42030;SDS011;27709;52.036;5.906;2022-08-24T02:11:09;5.78;;;4.10;;
42030;SDS011;27709;52.036;5.906;2022-08-24T02:13:39;5.07;;;3.83;;
42030;SDS011;27709;52.036;5.906;2022-08-24T02:16:06;6.28;;;4.07;;
42030;SDS011;27709;52.036;5.906;2022-08-24T02:18:32;5.47;;;4.00;;
42030;SDS011;27709;52.036;5.906;2022-08-24T02:20:59;5.45;;;4.25;;
42030;SDS011;27709;52.036;5.906;2022-08-24T02:23:25;4.15;;;3.75;;
42030;SDS011;27709;52.036;5.906;2022-08-24T02:25:52;6.97;;;4.30;;
42030;SDS011;27709;52.036;5.906;2022-08-24T02:28:18;7.45;;;4.63;;
42030;SDS011;27709;52.036;5.906;2022-08-24T02:30:45;5.00;;;4.05;;
42030;SDS011;27709;52.036;5.906;2022-08-24T02:33:11;6.43;;;4.35;;
42030;SDS011;27709;52.036;5.906;2022-08-24T02:35:37;6.05;;;3.97;;
42030;SDS011;27709;52.036;5.906;2022-08-24T02:38:04;5.43;;;4.40;;
42030;SDS011;27709;52.036;5.906;2022-08-24T02:40:30;4.68;;;4.18;;
42030;SDS011;27709;52.036;5.906;2022-08-24T02:42:57;6.50;;;4.35;;
42030;SDS011;27709;52.036;5.906;2022-08-24T02:45:23;4.82;;;4.07;;
42030;SDS011;27709;52.036;5.906;2022-08-24T02:47:48;5.22;;;4.50;;
42030;SDS011;27709;52.036;5.906;2022-08-24T02:50:15;6.10;;;4.30;;
42030;SDS011;27709;52.036;5.906;2022-08-24T02:52:42;5.47;;;4.10;;
42030;SDS011;27709;52.036;5.906;2022-08-24T02:55:09;5.65;;;4.20;;
42030;SDS011;27709;52.036;5.906;2022-08-24T02:57:38;4.50;;;4.10;;
42030;SDS011;27709;52.036;5.906;2022-08-24T03:00:05;5.65;;;4.20;;
42030;SDS011;27709;52.036;5.906;2022-08-24T03:02:33;4.93;;;4.10;;
42030;SDS011;27709;52.036;5.906;2022-08-24T03:04:59;5.47;;;4.10;;
42030;SDS011;27709;52.036;5.906;2022-08-24T03:07:25;5.43;;;4.68;;
42030;SDS011;27709;52.036;5.906;2022-08-24T03:09:52;6.13;;;4.38;;
42030;SDS011;27709;52.036;5.906;2022-08-24T03:12:17;5.95;;;4.43;;
42030;SDS011;27709;52.036;5.906;2022-08-24T03:14:43;6.35;;;4.10;;
42030;SDS011;27709;52.036;5.906;2022-08-24T03:17:09;5.18;;;4.68;;
42030;SDS011;27709;52.036;5.906;2022-08-24T03:19:34;6.25;;;4.65;;
42030;SDS011;27709;52.036;5.906;2022-08-24T03:22:00;6.97;;;4.78;;
42030;SDS011;27709;52.036;5.906;2022-08-24T03:24:26;7.15;;;5.30;;
42030;SDS011;27709;52.036;5.906;2022-08-24T03:26:52;7.20;;;4.97;;
42030;SDS011;27709;52.036;5.906;2022-08-24T03:29:18;6.93;;;5.32;;
42030;SDS011;27709;52.036;5.906;2022-08-24T03:31:44;5.75;;;5.00;;
42030;SDS011;27709;52.036;5.906;2022-08-24T03:34:10;6.63;;;5.30;;
42030;SDS011;27709;52.036;5.906;2022-08-24T03:36:37;6.38;;;5.25;;
42030;SDS011;27709;52.036;5.906;2022-08-24T03:39:04;7.65;;;5.65;;
42030;SDS011;27709;52.036;5.906;2022-08-24T03:41:30;7.05;;;5.82;;
42030;SDS011;27709;52.036;5.906;2022-08-24T03:43:56;6.25;;;5.00;;
42030;SDS011;27709;52.036;5.906;2022-08-24T03:46:25;6.82;;;5.13;;
42030;SDS011;27709;52.036;5.906;2022-08-24T03:48:53;6.68;;;5.00;;
42030;SDS011;27709;52.036;5.906;2022-08-24T03:51:20;5.82;;;4.63;;
42030;SDS011;27709;52.036;5.906;2022-08-24T03:53:48;4.70;;;4.25;;
42030;SDS011;27709;52.036;5.906;2022-08-24T03:56:15;5.55;;;4.50;;
42030;SDS011;27709;52.036;5.906;2022-08-24T03:58:42;5.28;;;4.70;;
42030;SDS011;27709;52.036;5.906;2022-08-24T04:01:08;7.13;;;4.68;;
42030;SDS011;27709;52.036;5.906;2022-08-24T04:03:36;5.40;;;4.30;;
42030;SDS011;27709;52.036;5.906;2022-08-24T04:06:04;5.53;;;3.92;;
42030;SDS011;27709;52.036;5.906;2022-08-24T04:08:31;5.50;;;4.05;;
42030;SDS011;27709;52.036;5.906;2022-08-24T04:10:57;4.13;;;3.35;;
42030;SDS011;27709;52.036;5.906;2022-08-24T04:13:23;4.13;;;3.45;;
42030;SDS011;27709;52.036;5.906;2022-08-24T04:15:49;4.95;;;4.28;;
42030;SDS011;27709;52.036;5.906;2022-08-24T04:18:17;6.47;;;4.30;;
42030;SDS011;27709;52.036;5.906;2022-08-24T04:20:43;5.07;;;4.57;;
42030;SDS011;27709;52.036;5.906;2022-08-24T04:23:10;5.57;;;4.50;;
42030;SDS011;27709;52.036;5.906;2022-08-24T04:25:42;6.97;;;4.95;;
42030;SDS011;27709;52.036;5.906;2022-08-24T04:28:13;5.72;;;4.97;;
42030;SDS011;27709;52.036;5.906;2022-08-24T04:30:43;5.93;;;4.60;;
42030;SDS011;27709;52.036;5.906;2022-08-24T04:33:14;5.80;;;4.53;;
42030;SDS011;27709;52.036;5.906;2022-08-24T04:35:42;5.95;;;4.55;;
42030;SDS011;27709;52.036;5.906;2022-08-24T04:38:12;5.32;;;4.70;;
42030;SDS011;27709;52.036;5.906;2022-08-24T04:40:39;6.22;;;4.20;;
42030;SDS011;27709;52.036;5.906;2022-08-24T04:55:56;6.72;;;5.28;;
42030;SDS011;27709;52.036;5.906;2022-08-24T04:58:24;8.88;;;5.70;;
42030;SDS011;27709;52.036;5.906;2022-08-24T05:00:51;5.63;;;5.00;;
42030;SDS011;27709;52.036;5.906;2022-08-24T05:03:17;7.57;;;5.40;;
42030;SDS011;27709;52.036;5.906;2022-08-24T05:05:45;6.72;;;5.30;;
42030;SDS011;27709;52.036;5.906;2022-08-24T05:08:13;6.53;;;5.60;;
42030;SDS011;27709;52.036;5.906;2022-08-24T05:10:41;7.22;;;5.80;;
42030;SDS011;27709;52.036;5.906;2022-08-24T05:13:09;6.22;;;5.63;;
42030;SDS011;27709;52.036;5.906;2022-08-24T05:15:39;6.35;;;5.18;;
42030;SDS011;27709;52.036;5.906;2022-08-24T05:18:07;5.18;;;4.68;;
42030;SDS011;27709;52.036;5.906;2022-08-24T05:20:33;6.93;;;4.82;;
42030;SDS011;27709;52.036;5.906;2022-08-24T05:23:02;6.38;;;4.90;;
42030;SDS011;27709;52.036;5.906;2022-08-24T05:25:29;6.22;;;5.15;;
42030;SDS011;27709;52.036;5.906;2022-08-24T05:27:58;6.50;;;5.07;;
42030;SDS011;27709;52.036;5.906;2022-08-24T05:32:58;6.57;;;4.75;;
42030;SDS011;27709;52.036;5.906;2022-08-24T05:35:24;6.80;;;5.20;;
42030;SDS011;27709;52.036;5.906;2022-08-24T05:37:50;6.32;;;5.03;;
42030;SDS011;27709;52.036;5.906;2022-08-24T05:40:17;6.70;;;4.80;;
42030;SDS011;27709;52.036;5.906;2022-08-24T05:42:45;5.20;;;4.60;;
42030;SDS011;27709;52.036;5.906;2022-08-24T05:45:12;6.28;;;4.93;;
42030;SDS011;27709;52.036;5.906;2022-08-24T05:47:44;6.72;;;5.63;;
42030;SDS011;27709;52.036;5.906;2022-08-24T05:50:09;7.88;;;5.65;;
42030;SDS011;27709;52.036;5.906;2022-08-24T05:52:35;6.43;;;5.68;;
42030;SDS011;27709;52.036;5.906;2022-08-24T05:55:01;7.60;;;6.00;;
42030;SDS011;27709;52.036;5.906;2022-08-24T05:57:33;6.80;;;6.03;;
42030;SDS011;27709;52.036;5.906;2022-08-24T06:02:35;7.30;;;6.32;;
42030;SDS011;27709;52.036;5.906;2022-08-24T06:07:36;7.70;;;5.47;;
42030;SDS011;27709;52.036;5.906;2022-08-24T06:10:03;7.63;;;6.05;;
42030;SDS011;27709;52.036;5.906;2022-08-24T06:22:50;8.80;;;7.05;;
42030;SDS011;27709;52.036;5.906;2022-08-24T06:25:17;8.85;;;6.85;;
42030;SDS011;27709;52.036;5.906;2022-08-24T06:28:01;9.85;;;7.68;;
42030;SDS011;27709;52.036;5.906;2022-08-24T06:30:28;8.45;;;6.82;;
42030;SDS011;27709;52.036;5.906;2022-08-24T06:32:57;7.53;;;6.82;;
42030;SDS011;27709;52.036;5.906;2022-08-24T06:35:23;8.80;;;7.13;;
42030;SDS011;27709;52.036;5.906;2022-08-24T06:37:49;7.63;;;6.82;;
42030;SDS011;27709;52.036;5.906;2022-08-24T06:40:14;10.65;;;8.40;;
42030;SDS011;27709;52.036;5.906;2022-08-24T06:42:40;11.38;;;8.20;;
42030;SDS011;27709;52.036;5.906;2022-08-24T06:45:06;9.80;;;7.80;;
42030;SDS011;27709;52.036;5.906;2022-08-24T06:47:32;11.75;;;7.93;;
42030;SDS011;27709;52.036;5.906;2022-08-24T06:49:58;9.50;;;8.07;;
42030;SDS011;27709;52.036;5.906;2022-08-24T06:52:23;10.40;;;8.73;;
42030;SDS011;27709;52.036;5.906;2022-08-24T06:54:49;8.80;;;7.38;;
42030;SDS011;27709;52.036;5.906;2022-08-24T06:57:15;10.50;;;7.25;;
42030;SDS011;27709;52.036;5.906;2022-08-24T07:04:51;8.32;;;5.60;;
42030;SDS011;27709;52.036;5.906;2022-08-24T07:07:18;7.13;;;4.93;;
42030;SDS011;27709;52.036;5.906;2022-08-24T07:09:45;7.15;;;4.80;;
42030;SDS011;27709;52.036;5.906;2022-08-24T07:12:12;6.47;;;4.60;;
42030;SDS011;27709;52.036;5.906;2022-08-24T07:14:39;7.65;;;4.78;;
42030;SDS011;27709;52.036;5.906;2022-08-24T07:17:05;5.30;;;3.53;;
42030;SDS011;27709;52.036;5.906;2022-08-24T07:19:31;6.47;;;4.10;;
42030;SDS011;27709;52.036;5.906;2022-08-24T07:21:57;6.72;;;4.05;;
42030;SDS011;27709;52.036;5.906;2022-08-24T07:24:23;5.95;;;4.30;;
42030;SDS011;27709;52.036;5.906;2022-08-24T07:26:49;4.90;;;3.60;;
42030;SDS011;27709;52.036;5.906;2022-08-24T07:29:16;5.68;;;3.70;;
42030;SDS011;27709;52.036;5.906;2022-08-24T07:31:43;5.97;;;3.33;;
42030;SDS011;27709;52.036;5.906;2022-08-24T07:34:10;5.38;;;2.80;;
42030;SDS011;27709;52.036;5.906;2022-08-24T07:36:38;5.20;;;3.20;;
42030;SDS011;27709;52.036;5.906;2022-08-24T07:39:10;5.88;;;3.40;;
42030;SDS011;27709;52.036;5.906;2022-08-24T07:41:36;5.75;;;3.13;;
42030;SDS011;27709;52.036;5.906;2022-08-24T07:44:04;3.40;;;2.60;;
42030;SDS011;27709;52.036;5.906;2022-08-24T07:46:30;4.70;;;2.53;;
42030;SDS011;27709;52.036;5.906;2022-08-24T07:51:42;4.35;;;2.60;;
42030;SDS011;27709;52.036;5.906;2022-08-24T07:54:09;4.78;;;2.67;;
42030;SDS011;27709;52.036;5.906;2022-08-24T07:56:35;4.63;;;2.15;;
42030;SDS011;27709;52.036;5.906;2022-08-24T07:59:01;3.97;;;1.80;;
42030;SDS011;27709;52.036;5.906;2022-08-24T08:01:29;4.65;;;2.03;;
42030;SDS011;27709;52.036;5.906;2022-08-24T08:03:58;4.28;;;2.15;;
42030;SDS011;27709;52.036;5.906;2022-08-24T08:06:24;4.05;;;1.70;;
42030;SDS011;27709;52.036;5.906;2022-08-24T08:08:54;4.85;;;2.20;;
42030;SDS011;27709;52.036;5.906;2022-08-24T08:11:32;4.82;;;2.22;;
42030;SDS011;27709;52.036;5.906;2022-08-24T08:14:00;3.35;;;2.10;;
42030;SDS011;27709;52.036;5.906;2022-08-24T08:16:28;4.10;;;1.75;;
42030;SDS011;27709;52.036;5.906;2022-08-24T08:18:55;3.33;;;1.50;;
42030;SDS011;27709;52.036;5.906;2022-08-24T08:21:21;4.82;;;1.58;;
42030;SDS011;27709;52.036;5.906;2022-08-24T08:24:06;3.17;;;1.40;;
42030;SDS011;27709;52.036;5.906;2022-08-24T08:26:42;2.92;;;1.27;;
42030;SDS011;27709;52.036;5.906;2022-08-24T08:29:11;3.40;;;1.48;;
42030;SDS011;27709;52.036;5.906;2022-08-24T08:31:39;4.60;;;1.50;;
42030;SDS011;27709;52.036;5.906;2022-08-24T08:34:05;3.03;;;1.20;;
42030;SDS011;27709;52.036;5.906;2022-08-24T08:36:32;3.60;;;1.35;;
42030;SDS011;27709;52.036;5.906;2022-08-24T08:38:58;4.22;;;1.48;;
42030;SDS011;27709;52.036;5.906;2022-08-24T08:53:20;4.03;;;1.00;;
42030;SDS011;27709;52.036;5.906;2022-08-24T08:59:33;2.58;;;1.00;;
42030;SDS011;27709;52.036;5.906;2022-08-24T09:08:26;2.72;;;0.90;;
42030;SDS011;27709;52.036;5.906;2022-08-24T09:23:29;1.92;;;0.65;;
42030;SDS011;27709;52.036;5.906;2022-08-24T09:28:41;2.17;;;0.75;;
42030;SDS011;27709;52.036;5.906;2022-08-24T09:31:44;1.80;;;0.73;;
42030;SDS011;27709;52.036;5.906;2022-08-24T09:37:30;1.40;;;0.75;;
42030;SDS011;27709;52.036;5.906;2022-08-24T09:42:53;1.10;;;0.50;;
42030;SDS011;27709;52.036;5.906;2022-08-24T09:45:59;1.23;;;0.70;;
42030;SDS011;27709;52.036;5.906;2022-08-24T09:57:18;0.20;;;0.15;;
42030;SDS011;27709;52.036;5.906;2022-08-24T10:08:51;1.33;;;0.20;;
42030;SDS011;27709;52.036;5.906;2022-08-24T10:11:54;1.73;;;0.30;;
42030;SDS011;27709;52.036;5.906;2022-08-24T10:14:34;0.40;;;0.30;;
42030;SDS011;27709;52.036;5.906;2022-08-24T10:17:35;1.42;;;0.50;;
42030;SDS011;27709;52.036;5.906;2022-08-24T10:20:15;0.50;;;0.32;;
42030;SDS011;27709;52.036;5.906;2022-08-24T10:25:55;1.17;;;0.40;;
42030;SDS011;27709;52.036;5.906;2022-08-24T10:28:37;0.55;;;0.40;;
42030;SDS011;27709;52.036;5.906;2022-08-24T10:31:30;0.68;;;0.20;;
42030;SDS011;27709;52.036;5.906;2022-08-24T10:54:02;1.20;;;0.40;;
42030;SDS011;27709;52.036;5.906;2022-08-24T11:01:59;2.00;;;0.50;;
42030;SDS011;27709;52.036;5.906;2022-08-24T11:04:27;0.57;;;0.38;;
42030;SDS011;27709;52.036;5.906;2022-08-24T11:10:07;1.50;;;0.40;;
42030;SDS011;27709;52.036;5.906;2022-08-24T11:12:47;0.82;;;0.30;;
42030;SDS011;27709;52.036;5.906;2022-08-24T11:15:19;1.95;;;0.30;;
42030;SDS011;27709;52.036;5.906;2022-08-24T11:17:55;1.38;;;0.40;;
42030;SDS011;27709;52.036;5.906;2022-08-24T11:20:33;0.60;;;0.30;;
42030;SDS011;27709;52.036;5.906;2022-08-24T11:23:08;0.70;;;0.40;;
42030;SDS011;27709;52.036;5.906;2022-08-24T11:25:54;0.90;;;0.30;;
42030;SDS011;27709;52.036;5.906;2022-08-24T11:28:36;1.45;;;0.40;;
42030;SDS011;27709;52.036;5.906;2022-08-24T11:31:13;1.85;;;0.45;;
42030;SDS011;27709;52.036;5.906;2022-08-24T11:33:46;1.38;;;0.50;;
42030;SDS011;27709;52.036;5.906;2022-08-24T11:36:18;1.73;;;0.40;;
42030;SDS011;27709;52.036;5.906;2022-08-24T11:38:46;0.90;;;0.30;;
42030;SDS011;27709;52.036;5.906;2022-08-24T11:41:12;0.88;;;0.40;;
42030;SDS011;27709;52.036;5.906;2022-08-24T11:46:42;1.13;;;0.50;;
42030;SDS011;27709;52.036;5.906;2022-08-24T11:52:14;1.10;;;0.40;;
42030;SDS011;27709;52.036;5.906;2022-08-24T12:00:23;2.05;;;0.50;;
42030;SDS011;27709;52.036;5.906;2022-08-24T12:05:44;2.28;;;0.52;;
42030;SDS011;27709;52.036;5.906;2022-08-24T12:16:31;2.30;;;0.60;;
42030;SDS011;27709;52.036;5.906;2022-08-24T12:19:17;1.23;;;0.60;;
42030;SDS011;27709;52.036;5.906;2022-08-24T12:21:49;1.60;;;0.70;;
42030;SDS011;27709;52.036;5.906;2022-08-24T12:24:24;1.52;;;0.60;;
42030;SDS011;27709;52.036;5.906;2022-08-24T12:26:58;2.17;;;0.68;;
42030;SDS011;27709;52.036;5.906;2022-08-24T12:32:41;1.65;;;0.80;;
42030;SDS011;27709;52.036;5.906;2022-08-24T12:35:09;3.17;;;0.80;;
42030;SDS011;27709;52.036;5.906;2022-08-24T12:37:47;1.85;;;0.82;;
42030;SDS011;27709;52.036;5.906;2022-08-24T12:43:17;1.92;;;0.60;;
42030;SDS011;27709;52.036;5.906;2022-08-24T12:45:49;1.83;;;0.85;;
42030;SDS011;27709;52.036;5.906;2022-08-24T12:56:08;3.08;;;0.77;;
42030;SDS011;27709;52.036;5.906;2022-08-24T13:01:46;1.00;;;0.80;;
42030;SDS011;27709;52.036;5.906;2022-08-24T13:07:39;2.55;;;0.80;;
42030;SDS011;27709;52.036;5.906;2022-08-24T13:12:46;2.88;;;0.93;;
42030;SDS011;27709;52.036;5.906;2022-08-24T13:17:56;0.85;;;0.60;;
42030;SDS011;27709;52.036;5.906;2022-08-24T13:33:49;1.10;;;0.70;;
42030;SDS011;27709;52.036;5.906;2022-08-24T13:45:49;2.03;;;0.82;;
42030;SDS011;27709;52.036;5.906;2022-08-24T13:54:32;1.35;;;0.73;;
42030;SDS011;27709;52.036;5.906;2022-08-24T13:57:41;1.30;;;0.60;;
42030;SDS011;27709;52.036;5.906;2022-08-24T14:00:36;2.15;;;0.70;;
42030;SDS011;27709;52.036;5.906;2022-08-24T14:05:49;1.52;;;0.63;;
42030;SDS011;27709;52.036;5.906;2022-08-24T14:19:30;2.28;;;0.98;;
42030;SDS011;27709;52.036;5.906;2022-08-24T14:22:12;1.23;;;0.60;;
42030;SDS011;27709;52.036;5.906;2022-08-24T14:25:21;1.40;;;0.55;;
42030;SDS011;27709;52.036;5.906;2022-08-24T14:27:48;1.67;;;0.68;;
42030;SDS011;27709;52.036;5.906;2022-08-24T14:30:48;2.10;;;0.70;;
42030;SDS011;27709;52.036;5.906;2022-08-24T14:33:37;1.35;;;0.60;;
42030;SDS011;27709;52.036;5.906;2022-08-24T14:36:20;1.55;;;0.70;;
42030;SDS011;27709;52.036;5.906;2022-08-24T14:52:52;1.52;;;0.60;;
42030;SDS011;27709;52.036;5.906;2022-08-24T14:58:55;0.95;;;0.50;;
42030;SDS011;27709;52.036;5.906;2022-08-24T15:04:23;1.95;;;0.68;;
42030;SDS011;27709;52.036;5.906;2022-08-24T15:07:24;1.55;;;0.47;;
42030;SDS011;27709;52.036;5.906;2022-08-24T15:09:51;1.33;;;0.73;;
42030;SDS011;27709;52.036;5.906;2022-08-24T15:12:37;2.00;;;0.65;;
42030;SDS011;27709;52.036;5.906;2022-08-24T15:20:58;1.80;;;0.60;;
42030;SDS011;27709;52.036;5.906;2022-08-24T15:23:51;1.33;;;0.63;;
42030;SDS011;27709;52.036;5.906;2022-08-24T15:29:14;0.68;;;0.47;;
42030;SDS011;27709;52.036;5.906;2022-08-24T15:31:42;2.05;;;0.88;;
42030;SDS011;27709;52.036;5.906;2022-08-24T15:37:16;1.35;;;0.60;;
42030;SDS011;27709;52.036;5.906;2022-08-24T15:39:52;1.52;;;0.60;;
42030;SDS011;27709;52.036;5.906;2022-08-24T15:42:18;1.20;;;0.50;;
42030;SDS011;27709;52.036;5.906;2022-08-24T15:44:45;1.45;;;0.60;;
42030;SDS011;27709;52.036;5.906;2022-08-24T15:47:17;1.98;;;0.60;;
42030;SDS011;27709;52.036;5.906;2022-08-24T15:52:35;2.30;;;0.80;;
42030;SDS011;27709;52.036;5.906;2022-08-24T15:55:14;1.67;;;0.50;;
42030;SDS011;27709;52.036;5.906;2022-08-24T15:57:53;1.40;;;0.70;;
42030;SDS011;27709;52.036;5.906;2022-08-24T16:00:20;1.25;;;0.60;;
42030;SDS011;27709;52.036;5.906;2022-08-24T16:03:22;1.95;;;0.70;;
42030;SDS011;27709;52.036;5.906;2022-08-24T16:05:54;2.15;;;0.70;;
42030;SDS011;27709;52.036;5.906;2022-08-24T16:08:53;1.20;;;0.60;;
42030;SDS011;27709;52.036;5.906;2022-08-24T16:14:31;1.35;;;0.60;;
42030;SDS011;27709;52.036;5.906;2022-08-24T16:19:56;1.23;;;0.50;;
42030;SDS011;27709;52.036;5.906;2022-08-24T16:22:35;2.35;;;0.63;;
42030;SDS011;27709;52.036;5.906;2022-08-24T16:27:56;1.90;;;0.50;;
42030;SDS011;27709;52.036;5.906;2022-08-24T16:30:38;1.88;;;0.60;;
42030;SDS011;27709;52.036;5.906;2022-08-24T16:33:04;1.50;;;0.50;;
42030;SDS011;27709;52.036;5.906;2022-08-24T16:35:29;1.60;;;0.60;;
42030;SDS011;27709;52.036;5.906;2022-08-24T16:37:56;1.05;;;0.50;;
42030;SDS011;27709;52.036;5.906;2022-08-24T16:40:22;0.98;;;0.57;;
42030;SDS011;27709;52.036;5.906;2022-08-24T16:42:48;1.15;;;0.50;;
42030;SDS011;27709;52.036;5.906;2022-08-24T16:45:16;0.88;;;0.50;;
42030;SDS011;27709;52.036;5.906;2022-08-24T16:47:44;1.92;;;0.60;;
42030;SDS011;27709;52.036;5.906;2022-08-24T16:50:11;1.10;;;0.60;;
42030;SDS011;27709;52.036;5.906;2022-08-24T16:52:38;0.90;;;0.63;;
42030;SDS011;27709;52.036;5.906;2022-08-24T16:55:04;0.93;;;0.50;;
42030;SDS011;27709;52.036;5.906;2022-08-24T16:57:31;1.48;;;0.60;;
42030;SDS011;27709;52.036;5.906;2022-08-24T17:00:00;0.75;;;0.50;;
42030;SDS011;27709;52.036;5.906;2022-08-24T17:02:30;1.02;;;0.50;;
42030;SDS011;27709;52.036;5.906;2022-08-24T17:04:55;1.33;;;0.50;;
42030;SDS011;27709;52.036;5.906;2022-08-24T17:07:22;0.80;;;0.60;;
42030;SDS011;27709;52.036;5.906;2022-08-24T17:09:50;1.70;;;0.60;;
42030;SDS011;27709;52.036;5.906;2022-08-24T17:12:16;1.05;;;0.50;;
42030;SDS011;27709;52.036;5.906;2022-08-24T17:14:41;1.20;;;0.55;;
42030;SDS011;27709;52.036;5.906;2022-08-24T17:17:09;0.98;;;0.60;;
42030;SDS011;27709;52.036;5.906;2022-08-24T17:19:37;1.70;;;0.63;;
42030;SDS011;27709;52.036;5.906;2022-08-24T17:22:04;1.33;;;0.60;;
42030;SDS011;27709;52.036;5.906;2022-08-24T17:24:30;1.10;;;0.60;;
42030;SDS011;27709;52.036;5.906;2022-08-24T17:26:56;0.90;;;0.60;;
42030;SDS011;27709;52.036;5.906;2022-08-24T17:29:22;1.95;;;0.60;;
42030;SDS011;27709;52.036;5.906;2022-08-24T17:31:48;1.80;;;0.50;;
42030;SDS011;27709;52.036;5.906;2022-08-24T17:34:14;1.25;;;0.50;;
42030;SDS011;27709;52.036;5.906;2022-08-24T17:36:42;1.50;;;0.70;;
42030;SDS011;27709;52.036;5.906;2022-08-24T17:39:09;1.38;;;0.50;;
42030;SDS011;27709;52.036;5.906;2022-08-24T17:41:36;1.20;;;0.57;;
42030;SDS011;27709;52.036;5.906;2022-08-24T17:44:02;1.48;;;0.60;;
42030;SDS011;27709;52.036;5.906;2022-08-24T17:46:28;1.70;;;0.52;;
42030;SDS011;27709;52.036;5.906;2022-08-24T17:48:55;2.28;;;0.57;;
42030;SDS011;27709;52.036;5.906;2022-08-24T17:51:21;2.30;;;0.60;;
42030;SDS011;27709;52.036;5.906;2022-08-24T17:53:47;3.13;;;0.55;;
42030;SDS011;27709;52.036;5.906;2022-08-24T17:56:12;1.27;;;0.50;;
42030;SDS011;27709;52.036;5.906;2022-08-24T17:58:39;1.95;;;0.60;;
42030;SDS011;27709;52.036;5.906;2022-08-24T18:01:24;2.55;;;0.50;;
42030;SDS011;27709;52.036;5.906;2022-08-24T18:03:51;2.83;;;0.60;;
42030;SDS011;27709;52.036;5.906;2022-08-24T18:06:17;2.03;;;0.60;;
42030;SDS011;27709;52.036;5.906;2022-08-24T18:08:43;2.30;;;0.50;;
42030;SDS011;27709;52.036;5.906;2022-08-24T18:11:10;1.70;;;0.57;;
42030;SDS011;27709;52.036;5.906;2022-08-24T18:13:36;1.70;;;0.50;;
42030;SDS011;27709;52.036;5.906;2022-08-24T18:16:02;1.58;;;0.60;;
42030;SDS011;27709;52.036;5.906;2022-08-24T18:18:28;1.27;;;0.70;;
42030;SDS011;27709;52.036;5.906;2022-08-24T18:20:54;1.63;;;0.70;;
42030;SDS011;27709;52.036;5.906;2022-08-24T18:23:19;2.33;;;0.77;;
42030;SDS011;27709;52.036;5.906;2022-08-24T18:25:46;2.38;;;0.90;;
42030;SDS011;27709;52.036;5.906;2022-08-24T18:28:14;1.90;;;0.80;;
42030;SDS011;27709;52.036;5.906;2022-08-24T18:30:41;1.90;;;0.65;;
42030;SDS011;27709;52.036;5.906;2022-08-24T18:33:08;3.33;;;0.85;;
42030;SDS011;27709;52.036;5.906;2022-08-24T18:35:34;1.88;;;0.80;;
42030;SDS011;27709;52.036;5.906;2022-08-24T18:38:00;1.70;;;0.70;;
42030;SDS011;27709;52.036;5.906;2022-08-24T18:40:26;2.15;;;0.77;;
42030;SDS011;27709;52.036;5.906;2022-08-24T18:42:52;1.70;;;0.77;;
42030;SDS011;27709;52.036;5.906;2022-08-24T18:45:18;2.08;;;0.80;;
42030;SDS011;27709;52.036;5.906;2022-08-24T18:47:44;1.80;;;0.70;;
42030;SDS011;27709;52.036;5.906;2022-08-24T18:50:10;2.03;;;0.80;;
42030;SDS011;27709;52.036;5.906;2022-08-24T18:52:36;3.03;;;0.90;;
42030;SDS011;27709;52.036;5.906;2022-08-24T18:55:03;1.33;;;0.80;;
42030;SDS011;27709;52.036;5.906;2022-08-24T18:57:30;2.38;;;0.90;;
42030;SDS011;27709;52.036;5.906;2022-08-24T18:59:56;1.80;;;0.93;;
42030;SDS011;27709;52.036;5.906;2022-08-24T19:02:21;2.63;;;1.00;;
42030;SDS011;27709;52.036;5.906;2022-08-24T19:05:02;2.33;;;0.90;;
42030;SDS011;27709;52.036;5.906;2022-08-24T19:07:32;1.73;;;0.80;;
42030;SDS011;27709;52.036;5.906;2022-08-24T19:09:59;2.38;;;1.00;;
42030;SDS011;27709;52.036;5.906;2022-08-24T19:12:26;1.85;;;1.10;;
42030;SDS011;27709;52.036;5.906;2022-08-24T19:14:53;2.55;;;1.02;;
42030;SDS011;27709;52.036;5.906;2022-08-24T19:17:21;1.25;;;0.93;;
42030;SDS011;27709;52.036;5.906;2022-08-24T19:19:47;2.25;;;0.82;;
42030;SDS011;27709;52.036;5.906;2022-08-24T19:22:13;1.90;;;0.90;;
42030;SDS011;27709;52.036;5.906;2022-08-24T19:24:40;1.80;;;1.27;;
42030;SDS011;27709;52.036;5.906;2022-08-24T19:27:07;1.25;;;0.90;;
42030;SDS011;27709;52.036;5.906;2022-08-24T19:29:32;2.08;;;1.25;;
42030;SDS011;27709;52.036;5.906;2022-08-24T19:31:58;1.35;;;0.90;;
42030;SDS011;27709;52.036;5.906;2022-08-24T19:34:24;1.88;;;1.30;;
42030;SDS011;27709;52.036;5.906;2022-08-24T19:36:49;3.92;;;1.30;;
42030;SDS011;27709;52.036;5.906;2022-08-24T19:39:16;1.85;;;1.08;;